sensor_id;sensor_type;location;lat;lon;timestamp;P1;durP1;ratioP1;P2;durP2;ratioP2
4638;SDS011;2332;38.646;-9.154;2022-10-13T00:01:22;14.03;;;5.67;;
4638;SDS011;2332;38.646;-9.154;2022-10-13T00:03:49;15.90;;;5.90;;
4638;SDS011;2332;38.646;-9.154;2022-10-13T00:06:16;11.53;;;5.60;;
4638;SDS011;2332;38.646;-9.154;2022-10-13T00:08:43;21.17;;;6.87;;
4638;SDS011;2332;38.646;-9.154;2022-10-13T00:11:13;11.93;;;5.70;;
4638;SDS011;2332;38.646;-9.154;2022-10-13T00:13:42;18.60;;;6.23;;
4638;SDS011;2332;38.646;-9.154;2022-10-13T00:16:08;9.23;;;6.03;;
4638;SDS011;2332;38.646;-9.154;2022-10-13T00:18:34;10.53;;;5.93;;
4638;SDS011;2332;38.646;-9.154;2022-10-13T00:21:00;13.23;;;5.60;;
4638;SDS011;2332;38.646;-9.154;2022-10-13T00:23:26;13.07;;;5.83;;
4638;SDS011;2332;38.646;-9.154;2022-10-13T00:25:51;19.37;;;5.47;;
4638;SDS011;2332;38.646;-9.154;2022-10-13T00:28:17;14.33;;;5.27;;
4638;SDS011;2332;38.646;-9.154;2022-10-13T00:30:44;12.17;;;6.07;;
4638;SDS011;2332;38.646;-9.154;2022-10-13T00:33:11;15.47;;;5.93;;
4638;SDS011;2332;38.646;-9.154;2022-10-13T00:35:44;7.77;;;5.50;;
4638;SDS011;2332;38.646;-9.154;2022-10-13T00:38:17;14.97;;;6.00;;
4638;SDS011;2332;38.646;-9.154;2022-10-13T00:40:51;15.77;;;6.47;;
4638;SDS011;2332;38.646;-9.154;2022-10-13T00:43:19;17.80;;;6.13;;
4638;SDS011;2332;38.646;-9.154;2022-10-13T00:45:50;17.83;;;6.20;;
4638;SDS011;2332;38.646;-9.154;2022-10-13T00:48:26;11.00;;;6.27;;
4638;SDS011;2332;38.646;-9.154;2022-10-13T00:50:53;16.80;;;6.60;;
4638;SDS011;2332;38.646;-9.154;2022-10-13T00:53:20;14.17;;;6.60;;
4638;SDS011;2332;38.646;-9.154;2022-10-13T00:55:47;17.50;;;6.57;;
4638;SDS011;2332;38.646;-9.154;2022-10-13T00:58:17;15.80;;;6.47;;
4638;SDS011;2332;38.646;-9.154;2022-10-13T01:00:48;14.37;;;5.30;;
4638;SDS011;2332;38.646;-9.154;2022-10-13T01:03:14;13.43;;;5.33;;
4638;SDS011;2332;38.646;-9.154;2022-10-13T01:05:40;8.03;;;5.33;;
4638;SDS011;2332;38.646;-9.154;2022-10-13T01:08:07;7.57;;;4.70;;
4638;SDS011;2332;38.646;-9.154;2022-10-13T01:10:44;8.67;;;5.40;;
4638;SDS011;2332;38.646;-9.154;2022-10-13T01:18:49;10.80;;;4.67;;
4638;SDS011;2332;38.646;-9.154;2022-10-13T01:21:40;19.83;;;6.23;;
4638;SDS011;2332;38.646;-9.154;2022-10-13T01:38:37;11.00;;;7.17;;
4638;SDS011;2332;38.646;-9.154;2022-10-13T01:41:22;19.70;;;6.77;;
4638;SDS011;2332;38.646;-9.154;2022-10-13T01:44:08;12.63;;;6.00;;
4638;SDS011;2332;38.646;-9.154;2022-10-13T01:46:40;18.50;;;7.40;;
4638;SDS011;2332;38.646;-9.154;2022-10-13T01:49:10;18.47;;;6.33;;
4638;SDS011;2332;38.646;-9.154;2022-10-13T01:51:39;11.60;;;5.90;;
4638;SDS011;2332;38.646;-9.154;2022-10-13T01:54:05;11.63;;;7.00;;
4638;SDS011;2332;38.646;-9.154;2022-10-13T01:56:31;25.40;;;7.63;;
4638;SDS011;2332;38.646;-9.154;2022-10-13T01:58:57;16.13;;;7.00;;
4638;SDS011;2332;38.646;-9.154;2022-10-13T02:04:16;15.90;;;6.93;;
4638;SDS011;2332;38.646;-9.154;2022-10-13T02:06:45;14.87;;;6.23;;
4638;SDS011;2332;38.646;-9.154;2022-10-13T02:11:53;16.00;;;6.60;;
4638;SDS011;2332;38.646;-9.154;2022-10-13T02:14:23;9.67;;;6.20;;
4638;SDS011;2332;38.646;-9.154;2022-10-13T02:16:51;15.47;;;7.20;;
4638;SDS011;2332;38.646;-9.154;2022-10-13T02:19:18;17.97;;;6.77;;
4638;SDS011;2332;38.646;-9.154;2022-10-13T02:21:44;23.13;;;8.83;;
4638;SDS011;2332;38.646;-9.154;2022-10-13T02:24:11;9.23;;;5.67;;
4638;SDS011;2332;38.646;-9.154;2022-10-13T02:26:37;9.07;;;5.70;;
4638;SDS011;2332;38.646;-9.154;2022-10-13T02:29:10;8.30;;;5.30;;
4638;SDS011;2332;38.646;-9.154;2022-10-13T02:31:38;13.17;;;5.83;;
4638;SDS011;2332;38.646;-9.154;2022-10-13T02:34:04;11.00;;;5.33;;
4638;SDS011;2332;38.646;-9.154;2022-10-13T02:36:30;7.27;;;5.33;;
4638;SDS011;2332;38.646;-9.154;2022-10-13T02:38:56;14.00;;;5.03;;
4638;SDS011;2332;38.646;-9.154;2022-10-13T02:41:21;16.80;;;5.80;;
4638;SDS011;2332;38.646;-9.154;2022-10-13T02:43:47;11.70;;;5.10;;
4638;SDS011;2332;38.646;-9.154;2022-10-13T02:46:12;9.60;;;5.40;;
4638;SDS011;2332;38.646;-9.154;2022-10-13T02:48:38;12.83;;;5.60;;
4638;SDS011;2332;38.646;-9.154;2022-10-13T02:51:04;11.90;;;5.70;;
4638;SDS011;2332;38.646;-9.154;2022-10-13T02:53:30;8.00;;;5.43;;
4638;SDS011;2332;38.646;-9.154;2022-10-13T02:55:56;9.63;;;5.40;;
4638;SDS011;2332;38.646;-9.154;2022-10-13T02:58:24;19.10;;;5.80;;
4638;SDS011;2332;38.646;-9.154;2022-10-13T03:00:50;7.40;;;5.47;;
4638;SDS011;2332;38.646;-9.154;2022-10-13T03:03:18;13.50;;;5.27;;
4638;SDS011;2332;38.646;-9.154;2022-10-13T03:05:44;13.90;;;6.03;;
4638;SDS011;2332;38.646;-9.154;2022-10-13T03:08:12;16.53;;;6.30;;
4638;SDS011;2332;38.646;-9.154;2022-10-13T03:10:39;12.33;;;5.80;;
4638;SDS011;2332;38.646;-9.154;2022-10-13T03:13:04;11.80;;;6.07;;
4638;SDS011;2332;38.646;-9.154;2022-10-13T03:15:30;15.47;;;6.70;;
4638;SDS011;2332;38.646;-9.154;2022-10-13T03:17:56;13.07;;;6.67;;
4638;SDS011;2332;38.646;-9.154;2022-10-13T03:20:21;16.70;;;6.10;;
4638;SDS011;2332;38.646;-9.154;2022-10-13T03:22:47;20.13;;;6.80;;
4638;SDS011;2332;38.646;-9.154;2022-10-13T03:25:12;10.80;;;7.13;;
4638;SDS011;2332;38.646;-9.154;2022-10-13T03:27:38;9.80;;;6.07;;
4638;SDS011;2332;38.646;-9.154;2022-10-13T03:30:04;10.80;;;6.50;;
4638;SDS011;2332;38.646;-9.154;2022-10-13T03:32:30;10.77;;;6.90;;
4638;SDS011;2332;38.646;-9.154;2022-10-13T03:34:55;15.77;;;7.30;;
4638;SDS011;2332;38.646;-9.154;2022-10-13T03:37:21;16.00;;;6.90;;
4638;SDS011;2332;38.646;-9.154;2022-10-13T03:39:46;10.70;;;7.30;;
4638;SDS011;2332;38.646;-9.154;2022-10-13T03:42:12;12.07;;;7.37;;
4638;SDS011;2332;38.646;-9.154;2022-10-13T03:44:38;15.57;;;7.73;;
4638;SDS011;2332;38.646;-9.154;2022-10-13T03:47:03;15.50;;;7.43;;
4638;SDS011;2332;38.646;-9.154;2022-10-13T03:49:29;13.63;;;7.03;;
4638;SDS011;2332;38.646;-9.154;2022-10-13T03:51:54;11.67;;;7.07;;
4638;SDS011;2332;38.646;-9.154;2022-10-13T03:54:20;16.93;;;8.17;;
4638;SDS011;2332;38.646;-9.154;2022-10-13T03:56:45;18.47;;;6.87;;
4638;SDS011;2332;38.646;-9.154;2022-10-13T03:59:11;11.63;;;6.20;;
4638;SDS011;2332;38.646;-9.154;2022-10-13T04:01:38;12.70;;;6.50;;
4638;SDS011;2332;38.646;-9.154;2022-10-13T04:04:08;14.70;;;6.90;;
4638;SDS011;2332;38.646;-9.154;2022-10-13T04:06:38;17.87;;;7.17;;
4638;SDS011;2332;38.646;-9.154;2022-10-13T04:09:03;14.33;;;6.53;;
4638;SDS011;2332;38.646;-9.154;2022-10-13T04:11:29;10.93;;;6.47;;
4638;SDS011;2332;38.646;-9.154;2022-10-13T04:13:55;16.20;;;6.20;;
4638;SDS011;2332;38.646;-9.154;2022-10-13T04:16:23;14.20;;;6.70;;
4638;SDS011;2332;38.646;-9.154;2022-10-13T04:18:53;13.47;;;6.33;;
4638;SDS011;2332;38.646;-9.154;2022-10-13T04:21:21;12.27;;;6.87;;
4638;SDS011;2332;38.646;-9.154;2022-10-13T04:23:47;12.07;;;6.70;;
4638;SDS011;2332;38.646;-9.154;2022-10-13T04:26:14;13.00;;;6.93;;
4638;SDS011;2332;38.646;-9.154;2022-10-13T04:28:45;15.80;;;6.13;;
4638;SDS011;2332;38.646;-9.154;2022-10-13T04:31:14;26.33;;;6.53;;
4638;SDS011;2332;38.646;-9.154;2022-10-13T04:33:39;17.87;;;7.73;;
4638;SDS011;2332;38.646;-9.154;2022-10-13T04:36:06;11.60;;;6.67;;
4638;SDS011;2332;38.646;-9.154;2022-10-13T04:38:33;13.40;;;6.57;;
4638;SDS011;2332;38.646;-9.154;2022-10-13T04:41:00;14.37;;;6.70;;
4638;SDS011;2332;38.646;-9.154;2022-10-13T04:43:27;17.20;;;7.00;;
4638;SDS011;2332;38.646;-9.154;2022-10-13T04:45:58;15.80;;;6.97;;
4638;SDS011;2332;38.646;-9.154;2022-10-13T04:48:34;14.10;;;6.20;;
4638;SDS011;2332;38.646;-9.154;2022-10-13T04:51:41;16.47;;;6.80;;
4638;SDS011;2332;38.646;-9.154;2022-10-13T04:53:52;17.60;;;6.70;;
4638;SDS011;2332;38.646;-9.154;2022-10-13T04:56:22;13.97;;;6.03;;
4638;SDS011;2332;38.646;-9.154;2022-10-13T04:58:47;18.43;;;6.70;;
4638;SDS011;2332;38.646;-9.154;2022-10-13T05:01:14;18.60;;;6.70;;
4638;SDS011;2332;38.646;-9.154;2022-10-13T05:03:42;9.37;;;5.57;;
4638;SDS011;2332;38.646;-9.154;2022-10-13T05:06:18;11.00;;;6.30;;
4638;SDS011;2332;38.646;-9.154;2022-10-13T05:08:45;14.00;;;6.10;;
4638;SDS011;2332;38.646;-9.154;2022-10-13T05:11:11;15.10;;;6.20;;
4638;SDS011;2332;38.646;-9.154;2022-10-13T05:13:36;10.77;;;5.73;;
4638;SDS011;2332;38.646;-9.154;2022-10-13T05:16:06;11.77;;;5.80;;
4638;SDS011;2332;38.646;-9.154;2022-10-13T05:18:32;19.30;;;6.80;;
4638;SDS011;2332;38.646;-9.154;2022-10-13T05:21:04;16.67;;;6.27;;
4638;SDS011;2332;38.646;-9.154;2022-10-13T05:23:34;19.43;;;6.20;;
4638;SDS011;2332;38.646;-9.154;2022-10-13T05:26:01;16.30;;;6.73;;
4638;SDS011;2332;38.646;-9.154;2022-10-13T05:28:34;10.90;;;5.50;;
4638;SDS011;2332;38.646;-9.154;2022-10-13T05:31:33;14.30;;;5.70;;
4638;SDS011;2332;38.646;-9.154;2022-10-13T05:33:52;20.93;;;6.37;;
4638;SDS011;2332;38.646;-9.154;2022-10-13T05:36:19;11.43;;;5.17;;
4638;SDS011;2332;38.646;-9.154;2022-10-13T05:38:50;13.13;;;6.33;;
4638;SDS011;2332;38.646;-9.154;2022-10-13T05:41:17;14.03;;;6.37;;
4638;SDS011;2332;38.646;-9.154;2022-10-13T05:43:42;8.67;;;5.60;;
4638;SDS011;2332;38.646;-9.154;2022-10-13T05:46:08;17.70;;;6.83;;
4638;SDS011;2332;38.646;-9.154;2022-10-13T05:48:34;14.17;;;6.30;;
4638;SDS011;2332;38.646;-9.154;2022-10-13T05:51:00;15.37;;;6.53;;
4638;SDS011;2332;38.646;-9.154;2022-10-13T05:53:29;16.77;;;6.87;;
4638;SDS011;2332;38.646;-9.154;2022-10-13T05:55:57;15.90;;;7.00;;
4638;SDS011;2332;38.646;-9.154;2022-10-13T05:58:50;17.67;;;6.93;;
4638;SDS011;2332;38.646;-9.154;2022-10-13T06:01:20;17.53;;;6.10;;
4638;SDS011;2332;38.646;-9.154;2022-10-13T06:03:47;13.93;;;6.83;;
4638;SDS011;2332;38.646;-9.154;2022-10-13T06:06:13;14.93;;;6.17;;
4638;SDS011;2332;38.646;-9.154;2022-10-13T06:08:39;18.93;;;6.70;;
4638;SDS011;2332;38.646;-9.154;2022-10-13T06:11:07;22.90;;;6.97;;
4638;SDS011;2332;38.646;-9.154;2022-10-13T06:13:32;23.97;;;8.13;;
4638;SDS011;2332;38.646;-9.154;2022-10-13T06:15:58;17.30;;;7.10;;
4638;SDS011;2332;38.646;-9.154;2022-10-13T06:18:24;16.60;;;7.97;;
4638;SDS011;2332;38.646;-9.154;2022-10-13T06:20:50;12.00;;;6.73;;
4638;SDS011;2332;38.646;-9.154;2022-10-13T06:23:15;15.63;;;7.30;;
4638;SDS011;2332;38.646;-9.154;2022-10-13T06:25:51;16.17;;;6.90;;
4638;SDS011;2332;38.646;-9.154;2022-10-13T06:28:17;12.73;;;6.47;;
4638;SDS011;2332;38.646;-9.154;2022-10-13T06:30:44;12.90;;;6.80;;
4638;SDS011;2332;38.646;-9.154;2022-10-13T06:33:18;17.43;;;6.50;;
4638;SDS011;2332;38.646;-9.154;2022-10-13T06:35:44;15.20;;;6.20;;
4638;SDS011;2332;38.646;-9.154;2022-10-13T06:38:09;15.77;;;7.07;;
4638;SDS011;2332;38.646;-9.154;2022-10-13T06:40:35;16.07;;;6.70;;
4638;SDS011;2332;38.646;-9.154;2022-10-13T06:43:01;17.13;;;6.90;;
4638;SDS011;2332;38.646;-9.154;2022-10-13T06:45:27;16.87;;;7.37;;
4638;SDS011;2332;38.646;-9.154;2022-10-13T06:47:53;22.30;;;6.97;;
4638;SDS011;2332;38.646;-9.154;2022-10-13T06:50:19;15.40;;;6.53;;
4638;SDS011;2332;38.646;-9.154;2022-10-13T06:52:45;19.87;;;7.90;;
4638;SDS011;2332;38.646;-9.154;2022-10-13T06:55:11;25.27;;;8.00;;
4638;SDS011;2332;38.646;-9.154;2022-10-13T06:57:39;16.50;;;7.03;;
4638;SDS011;2332;38.646;-9.154;2022-10-13T07:00:05;14.07;;;6.83;;
4638;SDS011;2332;38.646;-9.154;2022-10-13T07:02:31;17.90;;;7.50;;
4638;SDS011;2332;38.646;-9.154;2022-10-13T07:04:57;26.70;;;7.70;;
4638;SDS011;2332;38.646;-9.154;2022-10-13T07:07:23;25.73;;;13.77;;
4638;SDS011;2332;38.646;-9.154;2022-10-13T07:09:48;17.43;;;7.40;;
4638;SDS011;2332;38.646;-9.154;2022-10-13T07:12:14;14.87;;;6.00;;
4638;SDS011;2332;38.646;-9.154;2022-10-13T07:14:39;17.00;;;6.30;;
4638;SDS011;2332;38.646;-9.154;2022-10-13T07:17:05;20.60;;;7.07;;
4638;SDS011;2332;38.646;-9.154;2022-10-13T07:19:31;20.83;;;7.10;;
4638;SDS011;2332;38.646;-9.154;2022-10-13T07:21:59;19.40;;;6.37;;
4638;SDS011;2332;38.646;-9.154;2022-10-13T07:24:24;14.60;;;6.37;;
4638;SDS011;2332;38.646;-9.154;2022-10-13T07:26:50;18.73;;;7.40;;
4638;SDS011;2332;38.646;-9.154;2022-10-13T07:29:16;18.50;;;6.90;;
4638;SDS011;2332;38.646;-9.154;2022-10-13T07:31:42;13.57;;;6.57;;
4638;SDS011;2332;38.646;-9.154;2022-10-13T07:34:11;13.73;;;6.20;;
4638;SDS011;2332;38.646;-9.154;2022-10-13T07:36:39;15.37;;;6.87;;
4638;SDS011;2332;38.646;-9.154;2022-10-13T07:39:06;16.53;;;5.60;;
4638;SDS011;2332;38.646;-9.154;2022-10-13T07:41:32;18.57;;;5.90;;
4638;SDS011;2332;38.646;-9.154;2022-10-13T07:43:58;15.53;;;6.47;;
4638;SDS011;2332;38.646;-9.154;2022-10-13T07:46:24;13.47;;;5.90;;
4638;SDS011;2332;38.646;-9.154;2022-10-13T07:48:51;12.20;;;6.60;;
4638;SDS011;2332;38.646;-9.154;2022-10-13T07:51:18;14.90;;;6.20;;
4638;SDS011;2332;38.646;-9.154;2022-10-13T07:53:44;11.47;;;6.40;;
4638;SDS011;2332;38.646;-9.154;2022-10-13T07:56:13;11.60;;;5.60;;
4638;SDS011;2332;38.646;-9.154;2022-10-13T07:58:40;8.57;;;5.37;;
4638;SDS011;2332;38.646;-9.154;2022-10-13T08:01:07;14.17;;;5.87;;
4638;SDS011;2332;38.646;-9.154;2022-10-13T08:03:33;10.87;;;6.10;;
4638;SDS011;2332;38.646;-9.154;2022-10-13T08:06:00;8.80;;;5.70;;
4638;SDS011;2332;38.646;-9.154;2022-10-13T08:08:27;14.30;;;5.73;;
4638;SDS011;2332;38.646;-9.154;2022-10-13T08:11:11;10.97;;;5.40;;
4638;SDS011;2332;38.646;-9.154;2022-10-13T08:13:37;10.60;;;5.10;;
4638;SDS011;2332;38.646;-9.154;2022-10-13T08:16:03;15.27;;;5.53;;
4638;SDS011;2332;38.646;-9.154;2022-10-13T08:18:28;10.97;;;5.70;;
4638;SDS011;2332;38.646;-9.154;2022-10-13T08:20:54;9.63;;;4.87;;
4638;SDS011;2332;38.646;-9.154;2022-10-13T08:23:23;13.10;;;5.67;;
4638;SDS011;2332;38.646;-9.154;2022-10-13T08:25:51;14.63;;;5.83;;
4638;SDS011;2332;38.646;-9.154;2022-10-13T08:28:21;10.30;;;5.47;;
4638;SDS011;2332;38.646;-9.154;2022-10-13T08:30:50;10.03;;;5.40;;
4638;SDS011;2332;38.646;-9.154;2022-10-13T08:33:17;9.80;;;5.60;;
4638;SDS011;2332;38.646;-9.154;2022-10-13T08:35:44;9.33;;;4.57;;
4638;SDS011;2332;38.646;-9.154;2022-10-13T08:38:10;12.93;;;5.60;;
4638;SDS011;2332;38.646;-9.154;2022-10-13T08:40:36;11.23;;;5.57;;
4638;SDS011;2332;38.646;-9.154;2022-10-13T08:43:06;7.13;;;4.40;;
4638;SDS011;2332;38.646;-9.154;2022-10-13T08:45:33;19.77;;;6.03;;
4638;SDS011;2332;38.646;-9.154;2022-10-13T08:48:00;12.03;;;4.93;;
4638;SDS011;2332;38.646;-9.154;2022-10-13T08:50:29;11.63;;;5.17;;
4638;SDS011;2332;38.646;-9.154;2022-10-13T08:53:10;7.60;;;4.40;;
4638;SDS011;2332;38.646;-9.154;2022-10-13T08:58:38;11.23;;;5.20;;
4638;SDS011;2332;38.646;-9.154;2022-10-13T09:01:10;11.63;;;5.50;;
4638;SDS011;2332;38.646;-9.154;2022-10-13T09:03:51;12.10;;;5.00;;
4638;SDS011;2332;38.646;-9.154;2022-10-13T09:06:45;10.00;;;5.50;;
4638;SDS011;2332;38.646;-9.154;2022-10-13T09:09:14;10.73;;;5.10;;
4638;SDS011;2332;38.646;-9.154;2022-10-13T09:11:41;18.77;;;6.10;;
4638;SDS011;2332;38.646;-9.154;2022-10-13T09:14:10;11.03;;;5.20;;
4638;SDS011;2332;38.646;-9.154;2022-10-13T09:17:11;13.13;;;5.93;;
4638;SDS011;2332;38.646;-9.154;2022-10-13T09:19:43;11.70;;;5.33;;
4638;SDS011;2332;38.646;-9.154;2022-10-13T09:22:14;9.93;;;5.10;;
4638;SDS011;2332;38.646;-9.154;2022-10-13T09:27:42;10.53;;;4.70;;
4638;SDS011;2332;38.646;-9.154;2022-10-13T09:30:25;7.33;;;4.73;;
4638;SDS011;2332;38.646;-9.154;2022-10-13T09:36:05;14.30;;;5.60;;
4638;SDS011;2332;38.646;-9.154;2022-10-13T09:38:26;13.70;;;5.70;;
4638;SDS011;2332;38.646;-9.154;2022-10-13T09:43:37;13.60;;;6.53;;
4638;SDS011;2332;38.646;-9.154;2022-10-13T09:48:46;15.63;;;6.27;;
4638;SDS011;2332;38.646;-9.154;2022-10-13T09:53:55;18.70;;;6.70;;
4638;SDS011;2332;38.646;-9.154;2022-10-13T09:56:40;16.83;;;6.30;;
4638;SDS011;2332;38.646;-9.154;2022-10-13T09:59:11;10.03;;;5.83;;
4638;SDS011;2332;38.646;-9.154;2022-10-13T10:01:43;9.77;;;6.40;;
4638;SDS011;2332;38.646;-9.154;2022-10-13T10:04:13;15.37;;;6.87;;
4638;SDS011;2332;38.646;-9.154;2022-10-13T10:06:56;14.23;;;6.90;;
4638;SDS011;2332;38.646;-9.154;2022-10-13T10:09:30;17.90;;;8.00;;
4638;SDS011;2332;38.646;-9.154;2022-10-13T10:11:57;12.03;;;6.07;;
4638;SDS011;2332;38.646;-9.154;2022-10-13T10:14:31;9.87;;;6.00;;
4638;SDS011;2332;38.646;-9.154;2022-10-13T10:17:03;13.77;;;6.73;;
4638;SDS011;2332;38.646;-9.154;2022-10-13T10:27:13;10.60;;;4.80;;
4638;SDS011;2332;38.646;-9.154;2022-10-13T10:35:10;10.33;;;5.33;;
4638;SDS011;2332;38.646;-9.154;2022-10-13T10:37:50;12.80;;;5.63;;
4638;SDS011;2332;38.646;-9.154;2022-10-13T10:46:02;15.80;;;5.87;;
4638;SDS011;2332;38.646;-9.154;2022-10-13T10:48:32;13.03;;;5.93;;
4638;SDS011;2332;38.646;-9.154;2022-10-13T10:51:00;7.57;;;5.37;;
4638;SDS011;2332;38.646;-9.154;2022-10-13T10:56:29;11.90;;;5.63;;
4638;SDS011;2332;38.646;-9.154;2022-10-13T10:59:12;12.10;;;5.73;;
4638;SDS011;2332;38.646;-9.154;2022-10-13T11:07:00;7.73;;;5.03;;
4638;SDS011;2332;38.646;-9.154;2022-10-13T11:12:20;12.57;;;5.40;;
4638;SDS011;2332;38.646;-9.154;2022-10-13T11:17:33;8.80;;;5.50;;
4638;SDS011;2332;38.646;-9.154;2022-10-13T11:20:46;10.73;;;6.03;;
4638;SDS011;2332;38.646;-9.154;2022-10-13T11:25:38;10.10;;;5.80;;
4638;SDS011;2332;38.646;-9.154;2022-10-13T11:30:53;12.07;;;6.07;;
4638;SDS011;2332;38.646;-9.154;2022-10-13T11:33:50;13.13;;;5.50;;
4638;SDS011;2332;38.646;-9.154;2022-10-13T11:47:25;13.03;;;4.53;;
4638;SDS011;2332;38.646;-9.154;2022-10-13T11:53:06;6.37;;;4.77;;
4638;SDS011;2332;38.646;-9.154;2022-10-13T11:58:17;7.67;;;4.73;;
4638;SDS011;2332;38.646;-9.154;2022-10-13T12:03:27;8.33;;;4.60;;
4638;SDS011;2332;38.646;-9.154;2022-10-13T12:05:57;9.90;;;4.33;;
4638;SDS011;2332;38.646;-9.154;2022-10-13T12:08:25;5.87;;;4.27;;
4638;SDS011;2332;38.646;-9.154;2022-10-13T12:10:52;7.60;;;4.43;;
4638;SDS011;2332;38.646;-9.154;2022-10-13T12:13:22;7.33;;;4.13;;
4638;SDS011;2332;38.646;-9.154;2022-10-13T12:15:55;12.63;;;5.07;;
4638;SDS011;2332;38.646;-9.154;2022-10-13T12:18:31;9.50;;;5.13;;
4638;SDS011;2332;38.646;-9.154;2022-10-13T12:21:03;9.47;;;4.40;;
4638;SDS011;2332;38.646;-9.154;2022-10-13T12:23:34;7.80;;;4.67;;
4638;SDS011;2332;38.646;-9.154;2022-10-13T12:25:59;11.07;;;4.30;;
4638;SDS011;2332;38.646;-9.154;2022-10-13T12:28:27;8.37;;;4.93;;
4638;SDS011;2332;38.646;-9.154;2022-10-13T12:30:56;5.80;;;3.70;;
4638;SDS011;2332;38.646;-9.154;2022-10-13T12:36:09;9.43;;;4.13;;
4638;SDS011;2332;38.646;-9.154;2022-10-13T12:38:37;13.37;;;4.20;;
4638;SDS011;2332;38.646;-9.154;2022-10-13T12:41:03;7.87;;;4.77;;
4638;SDS011;2332;38.646;-9.154;2022-10-13T12:43:29;6.23;;;4.00;;
4638;SDS011;2332;38.646;-9.154;2022-10-13T12:45:57;7.13;;;4.13;;
4638;SDS011;2332;38.646;-9.154;2022-10-13T12:51:15;9.73;;;4.90;;
4638;SDS011;2332;38.646;-9.154;2022-10-13T12:53:45;4.23;;;3.70;;
4638;SDS011;2332;38.646;-9.154;2022-10-13T12:56:18;7.43;;;4.47;;
4638;SDS011;2332;38.646;-9.154;2022-10-13T12:58:53;9.03;;;4.43;;
4638;SDS011;2332;38.646;-9.154;2022-10-13T13:01:22;6.60;;;4.50;;
4638;SDS011;2332;38.646;-9.154;2022-10-13T13:03:55;7.17;;;4.03;;
4638;SDS011;2332;38.646;-9.154;2022-10-13T13:06:35;7.50;;;4.60;;
4638;SDS011;2332;38.646;-9.154;2022-10-13T13:11:39;6.20;;;5.13;;
4638;SDS011;2332;38.646;-9.154;2022-10-13T13:17:12;9.70;;;5.27;;
4638;SDS011;2332;38.646;-9.154;2022-10-13T13:19:40;15.13;;;4.60;;
4638;SDS011;2332;38.646;-9.154;2022-10-13T13:22:06;8.73;;;4.53;;
4638;SDS011;2332;38.646;-9.154;2022-10-13T13:24:32;11.13;;;4.20;;
4638;SDS011;2332;38.646;-9.154;2022-10-13T13:26:58;13.33;;;4.97;;
4638;SDS011;2332;38.646;-9.154;2022-10-13T13:29:25;9.37;;;5.07;;
4638;SDS011;2332;38.646;-9.154;2022-10-13T13:31:50;10.93;;;4.10;;
4638;SDS011;2332;38.646;-9.154;2022-10-13T13:34:16;7.80;;;4.73;;
4638;SDS011;2332;38.646;-9.154;2022-10-13T13:36:41;4.97;;;4.13;;
4638;SDS011;2332;38.646;-9.154;2022-10-13T13:39:12;9.17;;;5.20;;
4638;SDS011;2332;38.646;-9.154;2022-10-13T13:41:40;7.40;;;4.50;;
4638;SDS011;2332;38.646;-9.154;2022-10-13T13:44:05;13.40;;;5.50;;
4638;SDS011;2332;38.646;-9.154;2022-10-13T13:46:31;9.90;;;4.90;;
4638;SDS011;2332;38.646;-9.154;2022-10-13T13:48:57;10.10;;;6.50;;
4638;SDS011;2332;38.646;-9.154;2022-10-13T13:51:22;12.13;;;5.00;;
4638;SDS011;2332;38.646;-9.154;2022-10-13T13:53:48;10.23;;;5.43;;
4638;SDS011;2332;38.646;-9.154;2022-10-13T13:56:15;9.83;;;5.10;;
4638;SDS011;2332;38.646;-9.154;2022-10-13T13:58:42;9.03;;;5.50;;
4638;SDS011;2332;38.646;-9.154;2022-10-13T14:01:09;18.13;;;5.50;;
4638;SDS011;2332;38.646;-9.154;2022-10-13T14:03:35;15.10;;;5.70;;
4638;SDS011;2332;38.646;-9.154;2022-10-13T14:06:00;8.30;;;5.07;;
4638;SDS011;2332;38.646;-9.154;2022-10-13T14:08:28;8.60;;;4.67;;
4638;SDS011;2332;38.646;-9.154;2022-10-13T14:10:55;8.47;;;5.00;;
4638;SDS011;2332;38.646;-9.154;2022-10-13T14:13:20;14.70;;;5.23;;
4638;SDS011;2332;38.646;-9.154;2022-10-13T14:15:55;13.80;;;6.40;;
4638;SDS011;2332;38.646;-9.154;2022-10-13T14:18:24;8.50;;;5.50;;
4638;SDS011;2332;38.646;-9.154;2022-10-13T14:20:53;18.37;;;6.10;;
4638;SDS011;2332;38.646;-9.154;2022-10-13T14:23:18;14.63;;;5.83;;
4638;SDS011;2332;38.646;-9.154;2022-10-13T14:25:44;9.70;;;5.03;;
4638;SDS011;2332;38.646;-9.154;2022-10-13T14:28:09;12.57;;;5.70;;
4638;SDS011;2332;38.646;-9.154;2022-10-13T14:30:37;9.47;;;5.37;;
4638;SDS011;2332;38.646;-9.154;2022-10-13T14:33:03;10.37;;;5.63;;
4638;SDS011;2332;38.646;-9.154;2022-10-13T14:35:29;16.07;;;6.20;;
4638;SDS011;2332;38.646;-9.154;2022-10-13T14:37:54;10.00;;;6.50;;
4638;SDS011;2332;38.646;-9.154;2022-10-13T14:40:20;14.27;;;6.10;;
4638;SDS011;2332;38.646;-9.154;2022-10-13T14:42:45;13.03;;;6.90;;
4638;SDS011;2332;38.646;-9.154;2022-10-13T14:45:11;13.10;;;7.07;;
4638;SDS011;2332;38.646;-9.154;2022-10-13T14:47:37;21.60;;;7.63;;
4638;SDS011;2332;38.646;-9.154;2022-10-13T14:50:03;13.10;;;8.13;;
4638;SDS011;2332;38.646;-9.154;2022-10-13T14:52:29;16.70;;;8.47;;
4638;SDS011;2332;38.646;-9.154;2022-10-13T14:54:54;12.30;;;7.80;;
4638;SDS011;2332;38.646;-9.154;2022-10-13T14:57:20;21.43;;;8.90;;
4638;SDS011;2332;38.646;-9.154;2022-10-13T14:59:45;16.20;;;8.13;;
4638;SDS011;2332;38.646;-9.154;2022-10-13T15:02:11;18.07;;;8.70;;
4638;SDS011;2332;38.646;-9.154;2022-10-13T15:04:39;14.87;;;8.20;;
4638;SDS011;2332;38.646;-9.154;2022-10-13T15:07:05;17.10;;;8.30;;
4638;SDS011;2332;38.646;-9.154;2022-10-13T15:09:30;24.53;;;8.90;;
4638;SDS011;2332;38.646;-9.154;2022-10-13T15:11:56;23.77;;;9.30;;
4638;SDS011;2332;38.646;-9.154;2022-10-13T15:14:22;29.93;;;9.20;;
4638;SDS011;2332;38.646;-9.154;2022-10-13T15:16:47;19.70;;;8.63;;
4638;SDS011;2332;38.646;-9.154;2022-10-13T15:19:16;14.50;;;8.13;;
4638;SDS011;2332;38.646;-9.154;2022-10-13T15:21:41;16.30;;;8.40;;
4638;SDS011;2332;38.646;-9.154;2022-10-13T15:24:08;14.03;;;7.93;;
4638;SDS011;2332;38.646;-9.154;2022-10-13T15:26:34;17.00;;;8.20;;
4638;SDS011;2332;38.646;-9.154;2022-10-13T15:29:01;22.13;;;7.20;;
4638;SDS011;2332;38.646;-9.154;2022-10-13T15:31:26;15.67;;;8.83;;
4638;SDS011;2332;38.646;-9.154;2022-10-13T15:33:52;12.90;;;8.70;;
4638;SDS011;2332;38.646;-9.154;2022-10-13T15:36:18;19.27;;;9.10;;
4638;SDS011;2332;38.646;-9.154;2022-10-13T15:38:45;20.63;;;7.63;;
4638;SDS011;2332;38.646;-9.154;2022-10-13T15:41:10;15.90;;;7.70;;
4638;SDS011;2332;38.646;-9.154;2022-10-13T15:43:36;13.47;;;7.97;;
4638;SDS011;2332;38.646;-9.154;2022-10-13T15:46:06;15.60;;;8.57;;
4638;SDS011;2332;38.646;-9.154;2022-10-13T15:48:34;20.30;;;7.83;;
4638;SDS011;2332;38.646;-9.154;2022-10-13T15:51:07;15.47;;;8.53;;
4638;SDS011;2332;38.646;-9.154;2022-10-13T15:53:34;17.73;;;9.23;;
4638;SDS011;2332;38.646;-9.154;2022-10-13T15:56:00;18.23;;;8.03;;
4638;SDS011;2332;38.646;-9.154;2022-10-13T15:58:26;19.43;;;8.07;;
4638;SDS011;2332;38.646;-9.154;2022-10-13T16:00:52;23.07;;;8.67;;
4638;SDS011;2332;38.646;-9.154;2022-10-13T16:03:17;18.40;;;8.20;;
4638;SDS011;2332;38.646;-9.154;2022-10-13T16:05:45;16.07;;;8.30;;
4638;SDS011;2332;38.646;-9.154;2022-10-13T16:08:11;20.33;;;9.23;;
4638;SDS011;2332;38.646;-9.154;2022-10-13T16:10:38;20.60;;;8.40;;
4638;SDS011;2332;38.646;-9.154;2022-10-13T16:13:05;17.00;;;8.10;;
4638;SDS011;2332;38.646;-9.154;2022-10-13T16:15:31;15.77;;;7.70;;
4638;SDS011;2332;38.646;-9.154;2022-10-13T16:17:56;15.73;;;7.00;;
4638;SDS011;2332;38.646;-9.154;2022-10-13T16:20:22;12.20;;;7.20;;
4638;SDS011;2332;38.646;-9.154;2022-10-13T16:22:47;16.90;;;7.50;;
4638;SDS011;2332;38.646;-9.154;2022-10-13T16:25:13;13.53;;;7.90;;
4638;SDS011;2332;38.646;-9.154;2022-10-13T16:27:38;19.93;;;7.60;;
4638;SDS011;2332;38.646;-9.154;2022-10-13T16:30:04;14.53;;;7.00;;
4638;SDS011;2332;38.646;-9.154;2022-10-13T16:32:34;19.00;;;7.70;;
4638;SDS011;2332;38.646;-9.154;2022-10-13T16:35:02;16.27;;;7.57;;
4638;SDS011;2332;38.646;-9.154;2022-10-13T16:37:27;14.90;;;7.83;;
4638;SDS011;2332;38.646;-9.154;2022-10-13T16:39:53;13.93;;;7.27;;
4638;SDS011;2332;38.646;-9.154;2022-10-13T16:42:18;12.40;;;6.20;;
4638;SDS011;2332;38.646;-9.154;2022-10-13T16:44:44;18.83;;;6.60;;
4638;SDS011;2332;38.646;-9.154;2022-10-13T16:47:09;10.80;;;5.83;;
4638;SDS011;2332;38.646;-9.154;2022-10-13T16:49:35;10.13;;;5.90;;